Time;durP1;ratioP1;P1;durP2;ratioP2;P2;SDS_P1;SDS_P2;PMS_P1;PMS_P2;Temp;Humidity;BMP_temperature;BMP_pressure;BME280_temperature;BME280_humidity;BME280_pressure;Samples;Min_cycle;Max_cycle;Signal;HPM_P1;HPM_P2
2023/10/13 00:00:40;;;;;;;9.05;3.92;;;;;;;15.37;100.00;98356.59;6107338;19;20028;-75
2023/10/13 00:02:40;;;;;;;6.63;4.38;;;;;;;15.40;100.00;98366.16;6107780;19;20014;-75
2023/10/13 00:04:42;;;;;;;6.65;4.63;;;;;;;15.49;100.00;98360.09;6108036;19;20079;-74
2023/10/13 00:06:42;;;;;;;6.63;4.38;;;;;;;15.48;100.00;98355.72;6108890;19;20487;-75
2023/10/13 00:08:43;;;;;;;8.82;5.18;;;;;;;15.48;100.00;98359.31;6107921;19;20010;-75
2023/10/13 00:10:43;;;;;;;7.13;4.60;;;;;;;15.49;100.00;98362.88;6106098;19;20011;-75
2023/10/13 00:12:49;;;;;;;8.05;4.07;;;;;;;15.49;100.00;98357.31;6106739;19;20010;-74
2023/10/13 00:14:50;;;;;;;6.93;4.32;;;;;;;15.44;100.00;98361.31;6109002;19;20025;-74
2023/10/13 00:17:15;;;;;;;7.63;4.22;;;;;;;15.44;100.00;98370.47;6107512;19;20013;-75
2023/10/13 00:19:16;;;;;;;6.03;4.18;;;;;;;15.45;100.00;98363.69;6106232;19;20006;-75
2023/10/13 00:21:24;;;;;;;8.52;4.25;;;;;;;15.49;100.00;98360.88;6107375;19;20014;-75
2023/10/13 00:23:27;;;;;;;7.00;4.20;;;;;;;15.49;100.00;98363.66;6108067;19;20464;-75
2023/10/13 00:25:31;;;;;;;6.60;4.38;;;;;;;15.51;100.00;98357.69;6109149;19;20359;-75
2023/10/13 00:27:36;;;;;;;6.47;3.83;;;;;;;15.50;100.00;98367.25;6107616;19;20351;-75
2023/10/13 00:29:37;;;;;;;5.28;3.90;;;;;;;15.45;100.00;98371.25;6106073;19;20030;-75
2023/10/13 00:31:42;;;;;;;6.70;4.57;;;;;;;15.52;100.00;98376.78;6105736;19;20006;-75
2023/10/13 00:33:44;;;;;;;6.10;4.38;;;;;;;15.52;100.00;98371.19;6107584;19;20031;-75
2023/10/13 00:35:47;;;;;;;6.60;4.63;;;;;;;15.54;100.00;98360.41;6107607;19;20007;-75
2023/10/13 00:37:47;;;;;;;6.47;4.60;;;;;;;15.56;100.00;98362.81;6107351;19;20003;-75
2023/10/13 00:39:48;;;;;;;9.55;4.70;;;;;;;15.63;100.00;98368.31;6106871;19;20044;-75
2023/10/13 00:41:58;;;;;;;6.90;4.28;;;;;;;15.62;100.00;98361.94;6105938;19;20002;-75
2023/10/13 00:44:04;;;;;;;8.50;5.07;;;;;;;15.62;100.00;98342.44;6106541;19;20013;-75
2023/10/13 00:48:10;;;;;;;7.40;4.05;;;;;;;15.58;100.00;98350.03;6107521;19;20015;-75
2023/10/13 00:50:14;;;;;;;6.43;4.15;;;;;;;15.57;100.00;98348.44;6106853;19;20455;-75
2023/10/13 00:52:18;;;;;;;6.43;3.88;;;;;;;15.56;100.00;98340.50;6105914;19;20006;-75
2023/10/13 00:54:26;;;;;;;7.32;4.38;;;;;;;15.58;100.00;98350.03;6107131;19;20003;-75
2023/10/13 00:56:27;;;;;;;7.35;4.63;;;;;;;15.59;100.00;98354.41;6105771;19;20367;-75
2023/10/13 00:58:28;;;;;;;7.60;3.92;;;;;;;15.55;100.00;98358.41;6106731;19;20058;-74
2023/10/13 01:00:29;;;;;;;6.47;4.10;;;;;;;15.50;100.00;98358.88;6105209;19;20450;-75
2023/10/13 01:04:36;;;;;;;6.28;3.90;;;;;;;15.40;100.00;98355.00;6106266;19;20463;-74
2023/10/13 01:06:37;;;;;;;5.88;3.92;;;;;;;15.38;100.00;98357.38;6106006;19;20010;-75
2023/10/13 01:08:38;;;;;;;6.47;3.85;;;;;;;15.34;100.00;98368.59;6106149;19;19999;-75
2023/10/13 01:10:41;;;;;;;6.40;4.15;;;;;;;15.31;100.00;98363.84;6106053;19;20005;-75
2023/10/13 01:12:45;;;;;;;5.32;3.75;;;;;;;15.27;100.00;98362.28;6102828;19;20121;-75
2023/10/13 01:14:46;;;;;;;6.13;4.45;;;;;;;15.27;100.00;98359.50;6106182;19;20030;-75
2023/10/13 01:16:52;;;;;;;7.40;3.78;;;;;;;15.27;100.00;98354.72;6106357;19;20023;-75
2023/10/13 01:18:53;;;;;;;6.18;3.90;;;;;;;15.24;100.00;98349.97;6105645;19;20009;-74
2023/10/13 01:20:53;;;;;;;7.28;3.65;;;;;;;15.23;100.00;98348.41;6105535;19;20308;-75
2023/10/13 01:22:56;;;;;;;4.90;3.78;;;;;;;15.28;100.00;98347.94;6104420;19;20466;-75
2023/10/13 01:25:13;;;;;;;5.55;3.70;;;;;;;15.28;100.00;98349.94;6105444;19;20007;-75
2023/10/13 01:27:20;;;;;;;4.18;3.25;;;;;;;15.30;100.00;98353.88;6106394;19;20320;-74
2023/10/13 01:29:26;;;;;;;5.65;3.65;;;;;;;15.30;100.00;98345.50;6104867;19;20014;-74
2023/10/13 01:31:30;;;;;;;7.03;3.83;;;;;;;15.33;100.00;98347.50;6108196;19;20006;-75
2023/10/13 01:33:32;;;;;;;5.97;4.40;;;;;;;15.36;100.00;98340.28;6108801;19;20014;-74
2023/10/13 01:35:36;;;;;;;5.40;3.53;;;;;;;15.35;100.00;98335.94;6111401;19;20022;-75
2023/10/13 01:37:36;;;;;;;6.72;3.35;;;;;;;15.34;100.00;98337.13;6111085;19;20085;-75
2023/10/13 01:39:37;;;;;;;6.20;4.35;;;;;;;15.36;100.00;98335.50;6112026;19;20019;-75
2023/10/13 01:41:39;;;;;;;6.13;4.20;;;;;;;15.39;100.00;98336.66;6109745;19;20003;-75
2023/10/13 01:43:39;;;;;;;5.40;3.67;;;;;;;15.41;100.00;98337.06;6110921;19;20473;-75
2023/10/13 01:45:46;;;;;;;7.35;4.32;;;;;;;15.46;100.00;98331.03;6110794;19;20006;-74
2023/10/13 01:47:50;;;;;;;7.30;4.32;;;;;;;15.46;100.00;98331.03;6108904;19;20002;-74
2023/10/13 01:49:51;;;;;;;4.65;3.60;;;;;;;15.46;100.00;98344.97;6098518;19;20668;-75
2023/10/13 01:51:51;;;;;;;7.53;4.35;;;;;;;15.46;100.00;98344.97;6110733;19;20011;-75
2023/10/13 01:53:56;;;;;;;7.22;3.40;;;;;;;15.43;100.00;98337.44;6110365;19;20010;-74
2023/10/13 01:55:59;;;;;;;6.25;3.72;;;;;;;15.46;100.00;98342.16;6110245;19;20010;-75
2023/10/13 01:57:59;;;;;;;5.95;3.13;;;;;;;15.40;100.00;98336.28;6108563;19;20101;-75
2023/10/13 02:00:09;;;;;;;6.85;3.97;;;;;;;15.39;100.00;98331.09;6110573;19;20324;-75
2023/10/13 02:02:13;;;;;;;6.15;3.95;;;;;;;15.35;100.00;98328.34;6109907;19;20011;-75
2023/10/13 02:04:13;;;;;;;6.97;3.83;;;;;;;15.35;100.00;98327.56;6111657;19;20010;-75
2023/10/13 02:06:23;;;;;;;7.05;3.60;;;;;;;15.33;100.00;98327.97;6111162;19;20344;-75
2023/10/13 02:08:24;;;;;;;4.32;3.25;;;;;;;15.34;100.00;98331.56;6108957;19;20011;-75
2023/10/13 02:10:27;;;;;;;6.22;3.90;;;;;;;15.33;100.00;98329.97;6109481;19;20078;-75
2023/10/13 02:12:35;;;;;;;7.60;4.03;;;;;;;15.39;100.00;98314.38;6106835;19;20015;-75
2023/10/13 02:14:38;;;;;;;6.13;4.28;;;;;;;15.40;100.00;98318.75;6110262;19;20484;-75
2023/10/13 02:16:39;;;;;;;5.78;3.65;;;;;;;15.40;100.00;98321.56;6110777;19;20003;-75
2023/10/13 02:18:43;;;;;;;5.45;3.90;;;;;;;15.37;100.00;98317.56;6110894;19;20010;-75
2023/10/13 02:20:45;;;;;;;4.57;3.58;;;;;;;15.36;100.00;98313.22;6110444;19;19998;-74
2023/10/13 02:22:51;;;;;;;4.97;3.55;;;;;;;15.34;100.00;98317.63;6109508;19;20009;-74
2023/10/13 02:24:52;;;;;;;7.60;4.40;;;;;;;15.33;100.00;98324.41;6109331;19;20241;-75
2023/10/13 02:26:52;;;;;;;6.28;3.53;;;;;;;15.31;100.00;98316.47;6109080;19;20062;-75
2023/10/13 02:28:57;;;;;;;5.80;3.92;;;;;;;15.27;100.00;98312.13;6110567;19;20007;-75
2023/10/13 02:31:03;;;;;;;5.05;3.08;;;;;;;15.26;100.00;98307.75;6109185;19;20082;-75
2023/10/13 02:33:05;;;;;;;5.47;4.07;;;;;;;15.22;100.00;98298.63;6109534;19;20036;-74
2023/10/13 02:35:09;;;;;;;8.73;3.70;;;;;;;15.24;100.00;98310.94;6109738;19;20506;-75
2023/10/13 02:37:10;;;;;;;5.47;3.75;;;;;;;15.25;100.00;98306.16;6109899;19;20014;-75
2023/10/13 02:39:13;;;;;;;5.00;3.40;;;;;;;15.27;100.00;98300.97;6109118;19;20048;-75
2023/10/13 02:41:36;;;;;;;5.55;3.45;;;;;;;15.27;100.00;98298.97;6109734;19;20331;-75
2023/10/13 02:43:37;;;;;;;4.35;3.45;;;;;;;15.26;100.00;98294.59;6108240;19;20466;-75
2023/10/13 02:45:38;;;;;;;5.32;3.65;;;;;;;15.28;100.00;98289.41;6109779;19;20003;-75
2023/10/13 02:47:38;;;;;;;6.65;3.78;;;;;;;15.31;100.00;98285.81;6109660;19;20009;-75
2023/10/13 02:49:42;;;;;;;4.55;3.78;;;;;;;15.31;100.00;98287.81;6105172;19;20416;-75
2023/10/13 02:51:44;;;;;;;5.07;3.38;;;;;;;15.32;100.00;98279.03;6101337;19;20344;-75
2023/10/13 02:53:48;;;;;;;6.65;3.20;;;;;;;15.35;100.00;98285.75;6101904;19;20002;-74
2023/10/13 02:55:53;;;;;;;5.07;3.22;;;;;;;15.37;100.00;98284.13;6101546;19;20331;-75
2023/10/13 02:57:56;;;;;;;6.00;3.25;;;;;;;15.40;100.00;98286.09;6102485;19;20006;-75
2023/10/13 02:59:57;;;;;;;5.15;3.22;;;;;;;15.43;100.00;98295.63;6102202;19;20014;-75
2023/10/13 03:01:58;;;;;;;5.30;3.25;;;;;;;15.46;100.00;98281.63;6101297;19;20038;-75
2023/10/13 03:03:58;;;;;;;5.07;2.97;;;;;;;15.57;100.00;98283.53;6101190;19;20002;-74
2023/10/13 03:06:00;;;;;;;4.82;3.05;;;;;;;15.59;100.00;98286.69;6101690;19;20022;-74
2023/10/13 03:08:04;;;;;;;4.50;3.30;;;;;;;15.59;100.00;98279.09;6101502;19;20165;-74
2023/10/13 03:10:10;;;;;;;4.35;2.88;;;;;;;15.60;100.00;98266.75;6101221;19;20010;-74
2023/10/13 03:12:11;;;;;;;5.57;3.17;;;;;;;15.64;100.00;98278.69;6097793;19;20467;-75
2023/10/13 03:14:23;;;;;;;5.75;3.13;;;;;;;15.65;100.00;98265.53;6101341;19;20011;-74
2023/10/13 03:16:24;;;;;;;5.72;3.15;;;;;;;15.64;100.00;98264.75;6101985;19;20074;-74
2023/10/13 03:18:24;;;;;;;4.05;3.30;;;;;;;15.63;100.00;98257.56;6101204;19;20015;-75
2023/10/13 03:20:31;;;;;;;4.53;3.00;;;;;;;15.58;100.00;98249.66;6101237;19;20077;-74
2023/10/13 03:22:32;;;;;;;3.50;2.70;;;;;;;15.65;100.00;98259.97;6100483;19;20455;-75
2023/10/13 03:24:35;;;;;;;5.45;3.30;;;;;;;15.65;100.00;98265.53;6101881;19;20213;-74
2023/10/13 03:26:36;;;;;;;3.97;3.00;;;;;;;15.65;100.00;98263.53;6101575;19;20507;-74
2023/10/13 03:28:38;;;;;;;4.00;2.78;;;;;;;15.70;100.00;98271.41;6101352;19;20003;-74
2023/10/13 03:30:41;;;;;;;5.07;3.03;;;;;;;15.67;100.00;98271.47;6100575;19;20448;-75
2023/10/13 03:33:06;;;;;;;4.93;3.25;;;;;;;15.68;100.00;98271.06;6099681;19;20024;-75
2023/10/13 03:37:12;;;;;;;4.28;3.35;;;;;;;15.69;100.00;98250.31;6100709;19;20017;-74
2023/10/13 03:39:13;;;;;;;4.95;2.85;;;;;;;15.70;100.00;98243.53;6100484;19;20438;-74
2023/10/13 03:41:20;;;;;;;4.20;2.63;;;;;;;15.67;100.00;98244.38;6100688;19;20250;-75
2023/10/13 03:43:23;;;;;;;3.65;3.08;;;;;;;15.66;100.00;98236.44;6099485;19;20066;-74
2023/10/13 03:45:24;;;;;;;3.90;3.10;;;;;;;15.67;100.00;98238.81;6100399;19;20335;-75
2023/10/13 03:47:32;;;;;;;4.82;2.65;;;;;;;15.66;100.00;98242.81;6101415;19;20014;-74
2023/10/13 03:49:37;;;;;;;5.47;3.40;;;;;;;15.68;100.00;98234.81;6103598;19;20003;-75
2023/10/13 03:51:38;;;;;;;3.78;2.90;;;;;;;15.67;100.00;98229.66;6106388;19;19999;-75
2023/10/13 03:53:56;;;;;;;5.35;2.83;;;;;;;15.66;100.00;98222.50;6107837;19;20002;-74
2023/10/13 03:56:08;;;;;;;8.38;3.35;;;;;;;15.65;100.00;98221.72;6106922;19;20011;-75
2023/10/13 03:58:10;;;;;;;4.03;3.20;;;;;;;15.63;100.00;98220.53;6105833;19;20002;-75
2023/10/13 04:00:21;;;;;;;3.58;2.90;;;;;;;15.60;100.00;98224.91;6106906;19;20587;-74
2023/10/13 04:02:21;;;;;;;4.38;3.03;;;;;;;15.59;100.00;98228.13;6107027;19;20035;-75
2023/10/13 04:04:34;;;;;;;5.85;3.17;;;;;;;15.58;100.00;98224.53;6107248;19;20332;-75
2023/10/13 04:08:49;;;;;;;4.75;2.70;;;;;;;15.52;100.00;98222.63;6107294;19;20233;-75
2023/10/13 04:15:18;;;;;;;3.88;2.53;;;;;;;15.43;100.00;98223.94;6107608;19;20576;-75
2023/10/13 04:17:28;;;;;;;3.17;2.60;;;;;;;15.42;100.00;98224.34;6106767;19;20015;-74
2023/10/13 04:19:29;;;;;;;4.03;2.95;;;;;;;15.39;100.00;98219.59;6108555;19;20011;-74
2023/10/13 04:24:09;;;;;;;4.45;2.80;;;;;;;15.38;100.00;98209.66;6106321;19;20074;-74
2023/10/13 04:26:08;;;;;;;3.90;3.00;;;;;;;15.38;100.00;98215.22;6106209;19;20447;-74
2023/10/13 04:30:24;;;;;;;4.82;2.85;;;;;;;15.33;100.00;98210.91;6105960;19;20014;-75
2023/10/13 04:32:38;;;;;;;3.17;2.63;;;;;;;15.33;100.00;98213.69;6106149;19;20451;-74
2023/10/13 04:34:39;;;;;;;3.50;2.90;;;;;;;15.31;100.00;98204.97;6106984;19;20011;-75
2023/10/13 04:36:45;;;;;;;4.10;2.85;;;;;;;15.31;100.00;98209.75;6105850;19;19998;-74
2023/10/13 04:41:22;;;;;;;3.92;2.78;;;;;;;15.29;100.00;98209.34;6105457;19;20407;-75
2023/10/13 04:43:55;;;;;;;4.63;2.88;;;;;;;15.26;100.00;98202.63;6105385;19;20066;-74
2023/10/13 04:46:10;;;;;;;4.22;2.70;;;;;;;15.22;100.00;98204.66;6105893;19;20087;-74
2023/10/13 04:48:27;;;;;;;5.00;2.90;;;;;;;15.18;100.00;98201.91;6003046;19;2006480;-75
2023/10/13 04:50:41;;;;;;;5.22;3.00;;;;;;;15.13;100.00;98198.78;6107556;19;20479;-75
2023/10/13 04:55:11;;;;;;;4.53;3.28;;;;;;;15.04;100.00;98202.06;6107140;19;20020;-75
2023/10/13 05:03:01;;;;;;;3.22;2.75;;;;;;;15.12;100.00;98186.06;6100661;19;20007;-74
2023/10/13 05:05:11;;;;;;;7.18;2.67;;;;;;;15.20;100.00;98181.19;6102998;19;20331;-74
2023/10/13 05:46:48;;;;;;;4.43;2.47;;;;;;;15.29;100.00;98173.13;6113404;19;20592;-74
2023/10/13 06:30:30;;;;;;;3.78;2.95;;;;;;;15.71;100.00;98122.41;6111989;19;20024;-75
2023/10/13 06:32:31;;;;;;;5.78;3.83;;;;;;;15.74;100.00;98129.16;6106927;19;20458;-75
2023/10/13 06:34:42;;;;;;;5.00;2.80;;;;;;;15.75;100.00;98132.72;6110882;19;20002;-75
2023/10/13 06:36:47;;;;;;;3.83;2.80;;;;;;;15.80;100.00;98129.44;6110575;19;20529;-74
2023/10/13 06:38:55;;;;;;;5.70;3.55;;;;;;;15.83;100.00;98126.63;6110656;19;20006;-74
2023/10/13 06:40:56;;;;;;;6.13;2.83;;;;;;;15.84;100.00;98124.63;6110375;19;19995;-74
2023/10/13 06:43:11;;;;;;;4.10;2.88;;;;;;;15.83;100.00;98128.63;6109024;19;20058;-74
2023/10/13 06:45:12;;;;;;;5.55;3.03;;;;;;;15.85;100.00;98115.03;6110345;19;20016;-74
2023/10/13 06:47:13;;;;;;;6.03;3.40;;;;;;;15.88;100.00;98123.34;6109311;19;20006;-74
2023/10/13 06:49:14;;;;;;;9.20;3.53;;;;;;;15.89;100.00;98111.00;6099656;19;20014;-75
2023/10/13 06:51:25;;;;;;;6.70;3.60;;;;;;;15.97;100.00;98115.25;6109108;19;20006;-75
2023/10/13 06:53:29;;;;;;;4.78;2.75;;;;;;;16.05;100.00;98115.91;6109057;19;20006;-74
2023/10/13 06:55:35;;;;;;;4.60;2.97;;;;;;;16.08;100.00;98120.66;6109945;19;20014;-75
2023/10/13 06:57:35;;;;;;;6.70;4.00;;;;;;;16.17;100.00;98112.53;6108223;19;20102;-75
2023/10/13 06:59:40;;;;;;;4.57;3.75;;;;;;;16.22;100.00;98119.63;6110471;19;20137;-75
2023/10/13 07:01:42;;;;;;;7.25;3.67;;;;;;;16.24;100.00;98123.56;6108115;19;20017;-74
2023/10/13 07:03:43;;;;;;;4.43;3.70;;;;;;;16.32;100.00;98131.81;6109697;19;20007;-74
2023/10/13 07:05:44;;;;;;;7.57;3.88;;;;;;;16.33;100.00;98133.41;6109762;19;20010;-74
2023/10/13 07:07:45;;;;;;;8.80;3.80;;;;;;;16.38;100.00;98124.53;6108866;19;20070;-75
2023/10/13 07:09:58;;;;;;;8.10;4.90;;;;;;;16.41;100.00;98126.47;6109270;19;20017;-75
2023/10/13 07:12:03;;;;;;;7.97;3.80;;;;;;;16.44;100.00;98118.03;6107811;19;20049;-74
2023/10/13 07:14:10;;;;;;;8.10;4.32;;;;;;;16.50;100.00;98124.72;6108839;19;20007;-75
2023/10/13 07:16:13;;;;;;;10.60;5.15;;;;;;;16.61;100.00;98113.34;6109193;19;20356;-75
2023/10/13 07:18:22;;;;;;;4.93;3.65;;;;;;;16.69;100.00;98119.63;6108024;19;20479;-74
2023/10/13 07:22:28;;;;;;;7.40;4.07;;;;;;;16.77;100.00;98127.44;6108220;19;20010;-74
2023/10/13 07:24:32;;;;;;;5.63;3.50;;;;;;;16.83;100.00;98122.16;6109091;19;20437;-75
2023/10/13 07:26:33;;;;;;;6.90;4.15;;;;;;;16.94;100.00;98133.09;6109119;19;20047;-74
2023/10/13 07:28:43;;;;;;;8.77;4.10;;;;;;;17.02;100.00;98118.56;6110010;19;20027;-74
2023/10/13 07:31:11;;;;;;;5.00;3.58;;;;;;;17.03;100.00;98120.13;6109688;19;20007;-74
2023/10/13 07:33:13;;;;;;;8.85;4.05;;;;;;;17.07;100.00;98131.25;6107632;19;20486;-75
2023/10/13 07:35:24;;;;;;;8.48;3.83;;;;;;;17.11;100.00;98127.16;6108518;19;20478;-75
2023/10/13 07:37:30;;;;;;;5.97;3.60;;;;;;;17.16;100.00;98130.69;6109097;19;20518;-75
2023/10/13 07:39:34;;;;;;;8.75;4.07;;;;;;;17.26;100.00;98126.88;6109063;19;20490;-74
2023/10/13 07:41:34;;;;;;;5.47;3.65;;;;;;;17.36;100.00;98123.84;6107157;19;20030;-74
2023/10/13 07:43:37;;;;;;;7.35;4.07;;;;;;;17.48;100.00;98125.22;6108248;19;20462;-75
2023/10/13 07:45:38;;;;;;;6.57;3.92;;;;;;;17.52;100.00;98120.31;6108484;19;20006;-74
2023/10/13 07:47:39;;;;;;;7.70;3.95;;;;;;;17.58;100.00;98115.78;6109342;19;20006;-74
2023/10/13 07:49:40;;;;;;;7.60;4.00;;;;;;;17.63;100.00;98104.09;6103694;19;20036;-74
2023/10/13 07:51:49;;;;;;;9.57;3.95;;;;;;;17.67;100.00;98109.59;6099908;19;20473;-74
2023/10/13 07:53:49;;;;;;;6.57;3.50;;;;;;;17.73;100.00;98109.91;6101187;19;20465;-74
2023/10/13 07:56:00;;;;;;;5.85;3.35;;;;;;;17.77;100.00;98107.81;6101610;19;20011;-75
2023/10/13 07:58:07;;;;;;;4.00;3.17;;;;;;;17.85;100.00;98104.41;6100458;19;20010;-74
2023/10/13 08:00:10;;;;;;;11.38;3.97;;;;;;;17.85;100.00;98112.00;6097511;19;20003;-75
2023/10/13 08:02:15;;;;;;;9.98;4.13;;;;;;;17.81;100.00;98097.31;6100232;19;20026;-74
2023/10/13 08:04:26;;;;;;;5.75;3.47;;;;;;;17.78;100.00;98093.38;6101865;19;20052;-75
2023/10/13 08:06:28;;;;;;;6.82;3.65;;;;;;;17.87;100.00;98115.97;6101100;19;20354;-75
2023/10/13 08:08:37;;;;;;;13.52;3.88;;;;;;;17.90;100.00;98111.50;6101819;19;20230;-74
2023/10/13 08:10:38;;;;;;;6.78;3.50;;;;;;;17.95;100.00;98103.34;6100930;19;20010;-74
2023/10/13 08:16:20;;;;;;;6.05;3.88;;;;;;;18.06;100.00;98107.94;6099786;19;20022;-75
2023/10/13 08:18:30;;;;;;;10.93;4.28;;;;;;;18.01;100.00;98097.25;5998770;19;2006667;-75
2023/10/13 08:20:30;;;;;;;6.45;3.70;;;;;;;18.10;100.00;98097.41;6100407;19;20007;-74
2023/10/13 08:22:37;;;;;;;7.38;3.58;;;;;;;18.11;100.00;98099.78;6099767;19;20497;-74
2023/10/13 08:31:26;;;;;;;10.23;4.15;;;;;;;18.41;100.00;98084.63;6098259;19;20724;-75
2023/10/13 08:33:27;;;;;;;15.25;4.15;;;;;;;18.50;100.00;98089.59;6099755;19;20015;-75
2023/10/13 08:35:33;;;;;;;12.93;4.18;;;;;;;18.52;100.00;98093.50;6100500;19;20007;-74
2023/10/13 08:42:11;;;;;;;8.10;4.40;;;;;;;18.77;100.00;98081.66;6101729;19;20006;-74
2023/10/13 08:44:31;;;;;;;11.20;3.90;;;;;;;18.79;100.00;98084.84;6105846;19;19994;-74
2023/10/13 08:46:51;;;;;;;15.07;4.88;;;;;;;18.81;100.00;98090.00;6105502;19;20008;-75
2023/10/13 08:49:39;;;;;;;9.55;3.97;;;;;;;18.86;100.00;98095.03;6105820;19;20019;-74
2023/10/13 08:51:43;;;;;;;12.25;4.38;;;;;;;18.93;100.00;98089.22;6112223;19;20003;-75
2023/10/13 08:53:52;;;;;;;7.15;3.58;;;;;;;18.98;100.00;98099.91;6113193;19;20035;-74
2023/10/13 08:58:14;;;;;;;11.57;4.20;;;;;;;19.12;100.00;98097.94;6008339;19;2006155;-74
2023/10/13 09:00:55;;;;;;;13.50;4.35;;;;;;;19.11;100.00;98077.50;6112394;19;20009;-75
2023/10/13 09:02:59;;;;;;;10.80;4.65;;;;;;;19.16;100.00;98079.78;6111633;19;20625;-74
2023/10/13 09:05:36;;;;;;;5.78;3.70;;;;;;;19.27;100.00;98068.22;6113425;19;20014;-75
2023/10/13 09:07:25;;;;;;;10.52;3.92;;;;;;;19.32;100.00;98078.91;6112380;19;20091;-75
2023/10/13 09:09:39;;;;;;;7.07;3.28;;;;;;;19.34;100.00;98070.81;6112681;19;20023;-75
2023/10/13 09:11:49;;;;;;;11.27;4.68;;;;;;;19.43;100.00;98076.56;6110740;19;20022;-75
2023/10/13 09:13:51;;;;;;;8.35;3.78;;;;;;;19.41;100.00;98086.66;6111917;19;20003;-75
2023/10/13 09:16:01;;;;;;;13.77;4.40;;;;;;;19.43;100.00;98076.56;6111933;19;20020;-74
2023/10/13 09:18:15;;;;;;;7.55;4.10;;;;;;;19.45;100.00;98085.34;6111500;19;20017;-75
2023/10/13 09:22:28;;;;;;;10.68;4.70;;;;;;;19.44;100.00;98072.50;6112413;19;20383;-74
2023/10/13 09:24:29;;;;;;;11.98;4.63;;;;;;;19.46;100.00;98072.88;6112363;19;20015;-75
2023/10/13 09:26:35;;;;;;;8.38;4.22;;;;;;;19.45;100.00;98056.50;6112197;19;20007;-75
2023/10/13 09:28:37;;;;;;;10.40;4.88;;;;;;;19.41;100.00;98067.03;6110726;19;20014;-75
2023/10/13 09:30:56;;;;;;;8.48;4.10;;;;;;;19.35;100.00;98061.19;6111381;19;20014;-75
2023/10/13 09:33:04;;;;;;;12.82;5.60;;;;;;;19.36;100.00;98059.94;6109577;19;20015;-74
2023/10/13 09:35:13;;;;;;;10.30;4.35;;;;;;;19.40;100.00;98060.63;6113078;19;20017;-74
2023/10/13 09:37:20;;;;;;;10.18;4.38;;;;;;;19.43;100.00;98059.72;6110093;19;20374;-74
2023/10/13 09:39:37;;;;;;;12.48;4.60;;;;;;;19.45;100.00;98054.47;6112918;19;20023;-74
2023/10/13 09:41:40;;;;;;;10.05;4.50;;;;;;;19.46;100.00;98058.06;6109805;19;20018;-75
2023/10/13 09:43:43;;;;;;;8.68;3.95;;;;;;;19.45;100.00;98059.31;6110691;19;20006;-74
2023/10/13 09:46:23;;;;;;;8.32;3.75;;;;;;;19.45;100.00;98060.09;6111978;19;20474;-74
2023/10/13 09:48:21;;;;;;;10.68;4.95;;;;;;;19.46;100.00;98046.84;6007109;19;2006362;-74
2023/10/13 09:50:24;;;;;;;10.77;4.45;;;;;;;19.49;100.00;98054.34;6111712;19;20022;-75
2023/10/13 09:52:25;;;;;;;9.90;4.40;;;;;;;19.46;100.00;98047.63;6110438;19;20884;-75
2023/10/13 09:54:41;;;;;;;7.30;3.38;;;;;;;19.45;100.00;98062.88;6111863;19;19999;-75
2023/10/13 09:56:54;;;;;;;10.63;4.10;;;;;;;19.42;100.00;98046.94;6110005;19;20028;-75
2023/10/13 09:59:12;;;;;;;9.30;3.88;;;;;;;19.46;100.00;98049.66;6113031;19;20355;-75
2023/10/13 10:01:31;;;;;;;7.72;3.90;;;;;;;19.57;100.00;98048.09;6112079;19;20010;-75
2023/10/13 10:05:35;;;;;;;10.95;3.88;;;;;;;19.66;100.00;98041.81;6110974;19;20320;-75
2023/10/13 10:07:35;;;;;;;14.05;3.95;;;;;;;19.63;100.00;98037.88;6110912;19;20238;-75
2023/10/13 10:09:37;;;;;;;10.02;4.30;;;;;;;19.68;100.00;98033.72;6111360;19;20014;-75
2023/10/13 10:11:56;;;;;;;9.40;4.63;;;;;;;19.77;100.00;98039.44;6111031;19;20037;-75
2023/10/13 10:14:39;;;;;;;8.00;3.92;;;;;;;19.86;100.00;98025.53;6110818;19;20467;-74
2023/10/13 10:17:01;;;;;;;8.82;4.40;;;;;;;19.90;100.00;98025.41;6004346;19;2005949;-74
2023/10/13 10:19:07;;;;;;;7.15;3.67;;;;;;;19.95;100.00;98022.03;6108017;19;20006;-75
2023/10/13 10:21:07;;;;;;;9.52;3.95;;;;;;;20.04;100.00;98012.91;6108057;19;20876;-75
2023/10/13 10:23:14;;;;;;;9.07;4.10;;;;;;;20.15;100.00;98024.56;6111284;19;22474;-75
2023/10/13 10:25:27;;;;;;;11.63;4.78;;;;;;;20.18;100.00;98024.44;6111128;19;20003;-75
2023/10/13 10:27:29;;;;;;;;;;;;;;;20.25;100.00;98022.63;6112061;19;20020;-75
2023/10/13 10:29:32;;;;;;;13.48;4.18;;;;;;;20.34;100.00;98023.47;6111297;19;19956;-74
2023/10/13 10:31:34;;;;;;;7.55;4.18;;;;;;;20.44;100.00;98018.78;6108157;19;20453;-75
2023/10/13 10:33:35;;;;;;;11.18;3.83;;;;;;;20.49;100.00;98015.38;6111107;19;20031;-75
2023/10/13 10:35:36;;;;;;;6.95;4.10;;;;;;;20.48;100.00;98006.16;6110392;19;20010;-75
2023/10/13 10:37:39;;;;;;;8.63;3.80;;;;;;;20.41;100.00;98009.19;6110077;19;20370;-75
2023/10/13 10:39:46;;;;;;;8.25;4.05;;;;;;;20.44;100.00;97999.13;6110954;19;20007;-75
2023/10/13 10:41:51;;;;;;;11.15;4.07;;;;;;;20.47;100.00;98001.00;6109119;19;20011;-75
2023/10/13 10:43:53;;;;;;;8.48;4.15;;;;;;;20.49;100.00;97995.69;6111245;19;20010;-75
2023/10/13 10:45:59;;;;;;;10.27;4.15;;;;;;;20.55;100.00;97984.66;6110672;19;20010;-75
2023/10/13 10:48:01;;;;;;;12.45;4.78;;;;;;;20.62;100.00;97990.03;6110445;19;20032;-74
2023/10/13 10:50:19;;;;;;;11.35;4.93;;;;;;;20.70;100.00;97989.31;6109038;19;20516;-75
2023/10/13 10:52:20;;;;;;;10.23;4.15;;;;;;;20.74;100.00;97980.72;6109711;19;20779;-75
2023/10/13 10:54:21;;;;;;;9.57;4.53;;;;;;;20.80;100.00;97964.84;6110195;19;20415;-75
2023/10/13 10:56:25;;;;;;;11.43;4.60;;;;;;;20.86;100.00;97968.66;6109062;19;20463;-75
2023/10/13 10:58:35;;;;;;;10.50;4.90;;;;;;;20.89;100.00;97956.47;6110753;19;20010;-75
2023/10/13 11:00:50;;;;;;;11.32;5.28;;;;;;;20.80;100.00;97955.63;6109782;19;20014;-75
2023/10/13 11:02:56;;;;;;;12.60;5.40;;;;;;;20.91;100.00;97950.38;6109789;19;20082;-75
2023/10/13 11:04:57;;;;;;;15.15;5.43;;;;;;;20.94;100.00;97952.28;6109208;19;20467;-75
2023/10/13 11:06:58;;;;;;;15.10;5.30;;;;;;;20.91;100.00;97944.75;6110770;19;20470;-75
2023/10/13 11:09:03;;;;;;;10.13;5.30;;;;;;;21.02;100.00;97947.97;6109402;19;20010;-75
2023/10/13 11:11:05;;;;;;;8.20;4.72;;;;;;;21.07;100.00;97952.97;6110237;19;20086;-74
2023/10/13 11:13:21;;;;;;;11.20;5.88;;;;;;;21.11;100.00;97945.19;6109871;19;20355;-74
2023/10/13 11:15:22;;;;;;;8.77;5.15;;;;;;;21.11;100.00;97947.22;6109898;19;20012;-74
2023/10/13 11:17:33;;;;;;;11.40;4.25;;;;;;;21.10;100.00;97960.50;6109851;19;20010;-75
2023/10/13 11:19:34;;;;;;;10.48;5.20;;;;;;;21.07;100.00;97950.16;6110187;19;20014;-75
2023/10/13 11:21:37;;;;;;;10.55;5.28;;;;;;;21.04;100.00;97951.88;6108233;19;20074;-75
2023/10/13 11:23:39;;;;;;;;;;;;;;;20.93;100.00;97945.06;6110387;19;20014;-75
2023/10/13 11:25:40;;;;;;;13.25;4.75;;;;;;;20.94;100.00;97936.19;6109729;19;20239;-75
2023/10/13 11:27:55;;;;;;;9.50;5.20;;;;;;;20.96;100.00;97935.72;6109968;19;20015;-74
2023/10/13 11:30:05;;;;;;;7.80;4.82;;;;;;;20.94;100.00;97932.59;6109322;19;20006;-75
2023/10/13 11:32:05;;;;;;;8.20;4.60;;;;;;;21.00;100.00;97930.75;6106107;19;20003;-75
2023/10/13 11:34:06;;;;;;;10.00;4.68;;;;;;;21.00;100.00;97931.53;6108591;19;20034;-74
2023/10/13 11:36:15;;;;;;;10.10;4.85;;;;;;;20.98;100.00;97933.22;6108796;19;20053;-75
2023/10/13 11:38:25;;;;;;;10.25;4.50;;;;;;;21.01;100.00;97919.03;6108794;19;20542;-75
2023/10/13 11:40:43;;;;;;;11.05;5.03;;;;;;;21.02;100.00;97925.47;6109057;19;20417;-75
2023/10/13 11:42:47;;;;;;;8.95;4.68;;;;;;;21.03;100.00;97925.00;6107752;19;20453;-75
2023/10/13 11:45:01;;;;;;;8.02;4.40;;;;;;;20.99;100.00;97913.09;6109235;19;20010;-75
2023/10/13 11:47:16;;;;;;;10.10;4.70;;;;;;;20.98;100.00;97907.94;6109959;19;20488;-74
2023/10/13 11:49:19;;;;;;;9.20;4.63;;;;;;;21.01;100.00;97913.41;6098923;19;19998;-74
2023/10/13 11:51:26;;;;;;;;;;;;;;;21.04;100.00;97917.34;6109289;19;20336;-75
2023/10/13 11:53:28;;;;;;;7.78;4.80;;;;;;;21.09;100.00;97916.72;6107435;19;19946;-75
2023/10/13 11:55:29;;;;;;;8.05;4.10;;;;;;;21.23;100.00;97902.09;6108559;19;20086;-74
2023/10/13 11:57:29;;;;;;;9.20;5.03;;;;;;;21.29;100.00;97911.53;6107474;19;20388;-74